Time;durP1;ratioP1;P1;durP2;ratioP2;P2;SDS_P1;SDS_P2;PMS_P1;PMS_P2;Temp;Humidity;BMP_temperature;BMP_pressure;BME280_temperature;BME280_humidity;BME280_pressure;Samples;Min_cycle;Max_cycle;Signal;HPM_P1;HPM_P2
2023/10/03 00:02:08;;;;;;;33.13;22.75;;;20.60;48.70;;;;;;20451;6859;340818;-72
2023/10/03 00:04:34;;;;;;;35.80;20.83;;;20.60;48.90;;;;;;20672;6859;117686;-72
2023/10/03 00:07:00;;;;;;;31.00;18.97;;;20.10;49.20;;;;;;20655;6859;120523;-72
2023/10/03 00:09:26;;;;;;;33.22;22.13;;;20.20;49.30;;;;;;20460;6860;309160;-72
2023/10/03 00:11:51;;;;;;;34.03;22.73;;;20.20;49.50;;;;;;20460;6860;309139;-72
2023/10/03 00:14:18;;;;;;;37.60;20.67;;;20.40;49.10;;;;;;20665;6860;117871;-72
2023/10/03 00:16:43;;;;;;;34.35;22.48;;;20.40;49.10;;;;;;20438;6860;284639;-72
2023/10/03 00:19:08;;;;;;;34.20;23.02;;;20.40;49.30;;;;;;20459;6860;312899;-72
2023/10/03 00:21:34;;;;;;;35.72;23.50;;;20.50;49.20;;;;;;20458;6860;309125;-72
2023/10/03 00:24:01;;;;;;;30.50;19.57;;;20.70;48.90;;;;;;20667;6860;117670;-72
2023/10/03 00:26:28;;;;;;;31.55;21.77;;;20.50;49.40;;;;;;20449;6860;280083;-71
2023/10/03 00:28:51;;;;;;;31.87;21.57;;;20.40;49.30;;;;;;20429;6860;310770;-72
2023/10/03 00:31:17;;;;;;;31.17;19.93;;;20.60;49.30;;;;;;20666;6860;117877;-72
2023/10/03 00:33:43;;;;;;;33.63;22.05;;;20.40;49.20;;;;;;20453;6860;307660;-72
2023/10/03 00:36:22;;;;;;;31.87;19.27;;;20.40;49.30;;;;;;20675;6860;118453;-72
2023/10/03 00:38:45;;;;;;;31.93;19.07;;;20.20;49.30;;;;;;20636;6860;121074;-72
2023/10/03 00:41:09;;;;;;;33.35;21.83;;;19.90;49.70;;;;;;20454;6860;309594;-71
2023/10/03 00:43:36;;;;;;;32.00;19.17;;;19.90;50.70;;;;;;20671;6860;122334;-71
2023/10/03 00:46:03;;;;;;;30.97;18.33;;;19.90;49.90;;;;;;20666;6860;122638;-72
2023/10/03 00:48:28;;;;;;;29.93;18.43;;;19.60;50.00;;;;;;20667;6860;121326;-72
2023/10/03 00:50:55;;;;;;;32.00;17.60;;;19.20;50.50;;;;;;20647;6860;120679;-71
2023/10/03 00:53:20;;;;;;;33.13;21.92;;;19.20;50.50;;;;;;20458;6860;313551;-72
2023/10/03 00:55:47;;;;;;;32.27;22.00;;;19.50;50.90;;;;;;20456;6860;279592;-72
2023/10/03 01:00:44;;;;;;;31.85;18.55;;;19.70;50.10;;;;;;20674;6858;117724;-72
2023/10/03 01:03:09;;;;;;;32.67;17.90;;;19.50;50.40;;;;;;20650;6859;118485;-72
2023/10/03 01:05:34;;;;;;;32.57;21.50;;;19.20;50.60;;;;;;20361;6859;313360;-71
2023/10/03 01:08:00;;;;;;;35.00;21.95;;;19.40;51.00;;;;;;20411;6859;300941;-72
2023/10/03 01:10:26;;;;;;;31.20;19.45;;;19.70;50.60;;;;;;20662;6859;118193;-72
2023/10/03 01:12:54;;;;;;;32.67;19.03;;;19.60;50.30;;;;;;20607;6859;119006;-71
2023/10/03 01:15:22;;;;;;;35.80;22.77;;;19.40;50.70;;;;;;20444;6859;280014;-72
2023/10/03 01:17:47;;;;;;;35.07;22.90;;;19.50;51.40;;;;;;20412;6859;344855;-72
2023/10/03 01:20:16;;;;;;;35.30;22.60;;;19.70;51.10;;;;;;20429;6860;279621;-71
2023/10/03 01:22:37;;;;;;;38.20;23.57;;;19.90;50.60;;;;;;20417;6860;342087;-71
2023/10/03 01:24:59;;;;;;;34.00;22.67;;;20.00;50.20;;;;;;20401;6860;302652;-71
2023/10/03 01:27:25;;;;;;;33.47;19.67;;;20.10;50.20;;;;;;20651;6860;117921;-71
2023/10/03 01:29:50;;;;;;;31.57;18.30;;;19.80;50.30;;;;;;20668;6860;119732;-71
2023/10/03 01:32:16;;;;;;;36.00;22.48;;;19.50;50.70;;;;;;20455;6860;308259;-71
2023/10/03 01:34:41;;;;;;;32.28;19.33;;;19.40;50.90;;;;;;20645;6860;119709;-71
2023/10/03 01:37:07;;;;;;;34.13;21.97;;;19.30;50.80;;;;;;20454;6860;308747;-72
2023/10/03 01:39:33;;;;;;;31.17;19.42;;;19.40;51.20;;;;;;20672;6860;117768;-71
2023/10/03 01:41:58;;;;;;;91.70;66.63;;;19.20;50.90;;;;;;20459;6860;309193;-71
2023/10/03 01:44:26;;;;;;;65.33;42.40;;;19.30;51.50;;;;;;20676;6860;117734;-71
2023/10/03 01:46:50;;;;;;;40.25;27.58;;;19.20;51.50;;;;;;20434;6860;309954;-71
2023/10/03 01:49:16;;;;;;;34.13;22.90;;;19.30;52.10;;;;;;20464;6860;314147;-71
2023/10/03 01:51:40;;;;;;;33.42;22.02;;;19.60;51.50;;;;;;20452;6860;308348;-72
2023/10/03 01:54:06;;;;;;;32.37;19.27;;;19.70;50.70;;;;;;20662;6860;118344;-71
2023/10/03 01:56:33;;;;;;;32.40;21.30;;;19.50;50.70;;;;;;20461;6860;313738;-71
2023/10/03 01:59:00;;;;;;;29.57;17.97;;;19.40;51.50;;;;;;20638;6860;119343;-72
2023/10/03 02:01:26;;;;;;;29.73;20.13;;;19.30;51.70;;;;;;20451;6860;310892;-72
2023/10/03 02:03:50;;;;;;;27.83;17.13;;;19.30;52.30;;;;;;20659;6860;119822;-71
2023/10/03 02:06:15;;;;;;;29.67;20.25;;;19.30;52.20;;;;;;20453;6860;308722;-71
2023/10/03 02:08:41;;;;;;;26.02;17.55;;;19.30;52.80;;;;;;20669;6860;121686;-73
2023/10/03 02:11:06;;;;;;;31.25;17.83;;;19.20;52.50;;;;;;20506;6859;120962;-71
2023/10/03 02:13:34;;;;;;;27.87;17.60;;;19.00;52.70;;;;;;20674;6859;123965;-72
2023/10/03 02:15:58;;;;;;;32.43;18.33;;;18.80;52.70;;;;;;20662;6859;117614;-71
2023/10/03 02:18:24;;;;;;;34.17;19.23;;;18.60;52.60;;;;;;20668;6859;118123;-71
2023/10/03 02:20:51;;;;;;;32.53;21.33;;;18.40;52.70;;;;;;20436;6859;309972;-71
2023/10/03 02:23:17;;;;;;;32.60;22.10;;;18.60;52.60;;;;;;20453;6859;313607;-71
2023/10/03 02:25:43;;;;;;;32.27;18.20;;;18.90;52.10;;;;;;20659;6859;117668;-71
2023/10/03 02:28:05;;;;;;;27.55;18.17;;;18.80;52.10;;;;;;20669;6859;117937;-72
2023/10/03 02:30:31;;;;;;;30.63;17.47;;;18.50;52.30;;;;;;20685;6859;117710;-71
2023/10/03 02:32:57;;;;;;;30.30;18.77;;;18.10;52.80;;;;;;20651;6860;118225;-71
2023/10/03 02:35:24;;;;;;;33.78;22.05;;;18.30;53.30;;;;;;20457;6860;308007;-71
2023/10/03 02:37:49;;;;;;;33.77;19.10;;;18.30;53.00;;;;;;20658;6860;118607;-71
2023/10/03 02:40:15;;;;;;;29.63;18.60;;;18.30;52.70;;;;;;20662;6860;121019;-71
2023/10/03 02:42:40;;;;;;;33.03;21.65;;;18.10;52.80;;;;;;20455;6860;279727;-71
2023/10/03 02:45:06;;;;;;;27.67;17.52;;;18.30;53.90;;;;;;20651;6860;126510;-71
2023/10/03 02:47:31;;;;;;;27.93;15.93;;;18.30;53.70;;;;;;20665;6860;117754;-72
2023/10/03 02:49:58;;;;;;;27.80;17.10;;;18.10;53.90;;;;;;20662;6860;118224;-72
2023/10/03 02:52:22;;;;;;;29.75;20.25;;;18.00;54.30;;;;;;20452;6860;284563;-71
2023/10/03 02:54:48;;;;;;;28.97;20.77;;;18.30;55.50;;;;;;20441;6860;333640;-71
2023/10/03 02:57:15;;;;;;;28.52;19.70;;;18.70;54.90;;;;;;20452;6860;309149;-71
2023/10/03 02:59:40;;;;;;;24.87;16.05;;;19.10;54.30;;;;;;20671;6860;121107;-71
2023/10/03 03:02:06;;;;;;;27.40;17.00;;;19.10;53.70;;;;;;20670;6860;117614;-72
2023/10/03 03:04:33;;;;;;;27.67;16.92;;;18.90;53.90;;;;;;20674;6860;121342;-72
2023/10/03 03:07:02;;;;;;;29.63;16.70;;;18.70;54.00;;;;;;20638;6860;118073;-72
2023/10/03 03:09:27;;;;;;;29.63;17.77;;;18.70;54.20;;;;;;20658;6860;118022;-71
2023/10/03 03:11:51;;;;;;;35.73;18.23;;;18.60;54.30;;;;;;20669;6860;117568;-71
2023/10/03 03:14:16;;;;;;;35.60;19.40;;;18.40;54.20;;;;;;20677;6860;118063;-71
2023/10/03 03:16:42;;;;;;;32.60;18.33;;;18.40;54.40;;;;;;20662;6860;119055;-72
2023/10/03 03:19:08;;;;;;;33.47;19.02;;;18.30;54.50;;;;;;20659;6860;118427;-71
2023/10/03 03:21:33;;;;;;;34.97;19.20;;;18.30;54.70;;;;;;20668;6860;119384;-71
2023/10/03 03:24:08;;;;;;;34.08;22.67;;;18.20;54.70;;;;;;20456;6858;312851;-71
2023/10/03 03:26:39;;;;;;;34.97;22.92;;;18.90;54.20;;;;;;20419;6859;312882;-71
2023/10/03 03:29:21;;;;;;;31.10;20.13;;;18.90;54.10;;;;;;20648;6859;121582;-72
2023/10/03 03:31:46;;;;;;;34.20;19.37;;;18.80;53.70;;;;;;20670;6859;117749;-72
2023/10/03 03:34:11;;;;;;;39.00;23.67;;;18.50;53.80;;;;;;20451;6859;310977;-72
2023/10/03 03:36:40;;;;;;;35.38;23.45;;;18.60;53.90;;;;;;20458;6859;279284;-71
2023/10/03 03:39:12;;;;;;;34.90;23.47;;;18.80;53.30;;;;;;20437;6859;283507;-71
2023/10/03 03:41:32;;;;;;;34.33;20.47;;;19.00;52.70;;;;;;20654;6859;118272;-72
2023/10/03 03:43:59;;;;;;;34.90;22.97;;;18.80;52.90;;;;;;20458;6860;287534;-71
2023/10/03 03:46:25;;;;;;;36.58;22.95;;;18.80;52.80;;;;;;20461;6860;337886;-72
2023/10/03 03:48:52;;;;;;;35.38;22.80;;;19.00;52.40;;;;;;20450;6860;303705;-71
2023/10/03 03:51:17;;;;;;;35.13;23.30;;;19.10;52.00;;;;;;20455;6860;309145;-72
2023/10/03 03:53:43;;;;;;;35.83;22.90;;;19.20;52.40;;;;;;20454;6860;312293;-72
2023/10/03 03:56:09;;;;;;;34.50;20.20;;;19.20;51.50;;;;;;20669;6860;123528;-71
2023/10/03 03:58:34;;;;;;;31.70;19.70;;;19.00;51.80;;;;;;20665;6860;118860;-72
2023/10/03 04:01:00;;;;;;;34.77;22.03;;;18.60;52.40;;;;;;20444;6860;309131;-71
2023/10/03 04:03:27;;;;;;;36.60;21.07;;;18.50;52.70;;;;;;20655;6860;118451;-72
2023/10/03 04:05:50;;;;;;;31.93;19.73;;;18.40;52.80;;;;;;20670;6860;117816;-72
2023/10/03 04:08:16;;;;;;;33.88;22.40;;;18.20;53.30;;;;;;20423;6860;295781;-72
2023/10/03 04:10:45;;;;;;;33.33;19.73;;;18.30;53.60;;;;;;20632;6860;118992;-71
2023/10/03 04:13:10;;;;;;;31.33;18.97;;;18.20;53.40;;;;;;20630;6860;120915;-72
2023/10/03 04:15:37;;;;;;;35.50;22.83;;;17.90;53.50;;;;;;20411;6860;309548;-72
2023/10/03 04:18:01;;;;;;;35.08;23.38;;;18.00;53.70;;;;;;20410;6860;313317;-72
2023/10/03 04:20:31;;;;;;;35.43;23.17;;;18.30;53.40;;;;;;20439;6860;295575;-72
2023/10/03 04:22:59;;;;;;;33.83;22.50;;;18.50;53.10;;;;;;20404;6860;318410;-72
2023/10/03 04:25:24;;;;;;;30.87;20.07;;;18.70;52.70;;;;;;20646;6860;117804;-70
2023/10/03 04:27:50;;;;;;;32.20;18.90;;;18.50;52.70;;;;;;20627;6860;117827;-70
2023/10/03 04:30:16;;;;;;;34.70;18.53;;;17.80;54.10;;;;;;20649;6860;118170;-69
2023/10/03 04:32:47;;;;;;;35.33;22.08;;;17.80;53.60;;;;;;20435;6860;339290;-69
2023/10/03 04:35:32;;;;;;;33.85;22.65;;;18.30;54.30;;;;;;20387;6858;341522;-70
2023/10/03 04:37:58;;;;;;;29.60;18.80;;;18.20;54.30;;;;;;20663;6859;117586;-70
2023/10/03 04:40:36;;;;;;;33.70;22.33;;;18.20;54.10;;;;;;20447;6859;308688;-70
2023/10/03 04:43:01;;;;;;;32.42;22.33;;;18.60;54.20;;;;;;20435;6859;281130;-70
2023/10/03 04:45:26;;;;;;;32.80;22.67;;;18.50;54.00;;;;;;20442;6859;316517;-70
2023/10/03 04:47:51;;;;;;;31.77;19.77;;;18.80;53.70;;;;;;20655;6859;118824;-70
2023/10/03 04:50:24;;;;;;;33.72;19.50;;;18.70;53.60;;;;;;20659;6859;118206;-70
2023/10/03 04:52:48;;;;;;;30.40;18.53;;;18.40;53.90;;;;;;20632;6859;119340;-69
2023/10/03 04:55:11;;;;;;;31.27;18.85;;;18.20;54.30;;;;;;20660;6860;117920;-69
2023/10/03 04:57:41;;;;;;;28.30;18.33;;;18.00;54.50;;;;;;20628;6860;122120;-69
2023/10/03 05:00:04;;;;;;;31.00;20.47;;;17.90;54.80;;;;;;20431;6860;279573;-69
2023/10/03 05:02:28;;;;;;;31.10;20.23;;;18.20;55.10;;;;;;20448;6860;313426;-69
2023/10/03 05:04:56;;;;;;;29.37;18.03;;;18.60;54.60;;;;;;20639;6860;119304;-69
2023/10/03 05:07:28;;;;;;;29.60;19.40;;;18.60;54.20;;;;;;20450;6860;313227;-69
2023/10/03 05:09:52;;;;;;;28.07;17.30;;;18.80;54.10;;;;;;20624;6860;122079;-68
2023/10/03 05:12:17;;;;;;;28.80;19.67;;;18.70;53.80;;;;;;20394;6860;342543;-68
2023/10/03 05:14:46;;;;;;;26.75;16.42;;;18.80;53.60;;;;;;20631;6860;118624;-69
2023/10/03 05:17:09;;;;;;;23.83;16.40;;;18.80;53.60;;;;;;20651;6860;119137;-68
2023/10/03 05:19:36;;;;;;;27.20;18.60;;;18.60;53.80;;;;;;20448;6860;282258;-69
2023/10/03 05:22:02;;;;;;;26.75;18.62;;;19.00;53.80;;;;;;20452;6860;278733;-68
2023/10/03 05:24:26;;;;;;;24.73;17.60;;;19.00;53.30;;;;;;20431;6860;279749;-68
2023/10/03 05:26:52;;;;;;;25.85;18.23;;;19.30;52.70;;;;;;20423;6860;308753;-68
2023/10/03 05:29:18;;;;;;;23.47;15.37;;;19.50;52.20;;;;;;20654;6860;119099;-69
2023/10/03 05:31:43;;;;;;;22.42;16.12;;;19.30;52.30;;;;;;20443;6860;309204;-69
2023/10/03 05:34:09;;;;;;;26.60;18.37;;;19.30;52.40;;;;;;20446;6860;309587;-69
2023/10/03 05:36:34;;;;;;;26.02;16.65;;;19.50;52.10;;;;;;20653;6860;119816;-69
2023/10/03 05:39:00;;;;;;;28.60;19.90;;;19.40;52.20;;;;;;20422;6860;288290;-69
2023/10/03 05:41:26;;;;;;;27.30;17.17;;;19.40;52.50;;;;;;20655;6860;119657;-69
2023/10/03 05:43:52;;;;;;;29.30;17.00;;;19.20;52.40;;;;;;20645;6860;121125;-69
2023/10/03 05:46:17;;;;;;;26.50;16.35;;;18.90;52.80;;;;;;20655;6858;118883;-70
2023/10/03 05:48:46;;;;;;;27.27;19.87;;;18.60;53.20;;;;;;20424;6859;295512;-69
2023/10/03 05:51:12;;;;;;;28.47;17.13;;;18.80;53.80;;;;;;20651;6859;124756;-72
2023/10/03 05:53:36;;;;;;;27.73;17.30;;;18.80;53.60;;;;;;20628;6859;123329;-69
2023/10/03 05:56:04;;;;;;;27.10;16.70;;;18.60;53.60;;;;;;20650;6859;118149;-69
2023/10/03 05:58:28;;;;;;;30.37;20.00;;;18.50;53.80;;;;;;20429;6859;312743;-69
2023/10/03 06:00:53;;;;;;;28.53;16.63;;;18.70;53.90;;;;;;20627;6859;117755;-69
2023/10/03 06:03:19;;;;;;;26.73;18.62;;;18.80;53.80;;;;;;20421;6859;281651;-72
2023/10/03 06:05:46;;;;;;;29.45;17.33;;;18.90;53.40;;;;;;20647;6860;118241;-69
2023/10/03 06:08:12;;;;;;;30.00;17.40;;;19.00;53.30;;;;;;20636;6860;118715;-68
2023/10/03 06:10:35;;;;;;;27.67;19.00;;;18.80;53.30;;;;;;20417;6860;308658;-69
2023/10/03 06:13:01;;;;;;;25.23;18.13;;;19.00;53.20;;;;;;20431;6860;287886;-73
2023/10/03 06:15:27;;;;;;;27.48;18.52;;;19.40;52.60;;;;;;20440;6860;284306;-70
2023/10/03 06:17:52;;;;;;;23.60;17.10;;;19.70;52.00;;;;;;20460;6860;311275;-70
2023/10/03 06:20:20;;;;;;;26.08;18.12;;;20.20;50.90;;;;;;20466;6860;279168;-70
2023/10/03 06:22:46;;;;;;;25.57;16.30;;;20.10;50.90;;;;;;20644;6860;119336;-73
2023/10/03 06:25:13;;;;;;;21.63;13.30;;;20.10;50.90;;;;;;20678;6860;118015;-72
2023/10/03 06:27:38;;;;;;;17.95;13.80;;;19.90;51.30;;;;;;20466;6860;308215;-72
2023/10/03 06:30:04;;;;;;;15.00;11.23;;;20.10;50.60;;;;;;20682;6860;118456;-71
2023/10/03 06:32:30;;;;;;;14.20;11.30;;;20.30;50.80;;;;;;20458;6860;279641;-71
2023/10/03 06:34:56;;;;;;;20.17;12.88;;;20.70;49.50;;;;;;20654;6860;123828;-71
2023/10/03 06:37:23;;;;;;;24.47;15.13;;;20.70;49.50;;;;;;20664;6860;118426;-71
2023/10/03 06:39:47;;;;;;;23.90;14.95;;;20.70;49.70;;;;;;20665;6860;118282;-72
2023/10/03 06:42:13;;;;;;;26.52;16.40;;;20.70;50.00;;;;;;20628;6860;119452;-71
2023/10/03 06:44:43;;;;;;;25.50;16.37;;;20.60;50.20;;;;;;20651;6860;117804;-72
2023/10/03 06:47:09;;;;;;;29.20;16.30;;;20.60;50.40;;;;;;20657;6860;118650;-72
2023/10/03 06:49:34;;;;;;;25.05;15.57;;;20.60;50.50;;;;;;20677;6860;118233;-72
2023/10/03 06:52:01;;;;;;;27.35;19.12;;;20.60;50.50;;;;;;20456;6860;279155;-71
2023/10/03 06:54:25;;;;;;;25.53;18.73;;;21.00;49.60;;;;;;20461;6860;310479;-69
2023/10/03 06:56:50;;;;;;;21.77;16.33;;;21.50;48.80;;;;;;20655;6858;120671;-72
2023/10/03 06:59:51;;;;;;;22.97;14.97;;;21.60;48.80;;;;;;20688;6859;68910;-72
2023/10/03 07:02:49;;;;;;;25.55;17.48;;;21.60;49.00;;;;;;19996;6859;317535;-72
2023/10/03 07:05:35;;;;;;;23.38;17.20;;;21.90;48.30;;;;;;19888;6880;339239;-71
2023/10/03 07:08:03;;;;;;;19.90;12.93;;;22.40;47.20;;;;;;20636;6859;67515;-73
2023/10/03 07:10:35;;;;;;;17.77;13.73;;;22.50;47.30;;;;;;20452;6859;313278;-73
2023/10/03 07:13:11;;;;;;;16.63;12.07;;;22.70;46.70;;;;;;20642;6859;117761;-80
2023/10/03 07:15:36;;;;;;;17.92;12.70;;;22.80;46.90;;;;;;20391;6859;338254;-73
2023/10/03 07:18:03;;;;;;;16.47;11.70;;;23.00;45.70;;;;;;20673;6860;68146;-73
2023/10/03 07:23:56;;;;;;;15.03;12.50;;;23.40;45.00;;;;;;20365;6859;326457;-74
2023/10/03 07:26:20;;;;;;;16.57;13.30;;;23.90;44.20;;;;;;20367;6860;309113;-75
2023/10/03 07:28:46;;;;;;;17.37;12.27;;;24.30;43.90;;;;;;20650;6860;120906;-75
2023/10/03 07:31:14;;;;;;;18.35;13.13;;;24.30;44.00;;;;;;20450;6860;278648;-75
2023/10/03 07:33:37;;;;;;;14.13;11.80;;;24.50;43.60;;;;;;20647;6860;119533;-72
2023/10/03 07:36:03;;;;;;;15.43;12.13;;;24.60;43.90;;;;;;20661;6860;118239;-73
2023/10/03 07:38:29;;;;;;;17.73;13.45;;;24.70;42.90;;;;;;20448;6860;279211;-73
2023/10/03 07:40:55;;;;;;;13.87;11.00;;;24.60;42.80;;;;;;20644;6860;147884;-73
2023/10/03 07:43:20;;;;;;;13.93;11.40;;;24.80;43.00;;;;;;20447;6860;313511;-73
2023/10/03 07:45:46;;;;;;;14.10;10.60;;;25.00;41.20;;;;;;20672;6860;120003;-73
2023/10/03 07:48:12;;;;;;;15.20;12.20;;;25.10;41.60;;;;;;20451;6860;278835;-73
2023/10/03 07:50:38;;;;;;;15.32;12.43;;;25.60;40.80;;;;;;20451;6860;314811;-72
2023/10/03 07:53:03;;;;;;;18.40;11.63;;;25.60;40.80;;;;;;20640;6860;119253;-71
2023/10/03 07:55:32;;;;;;;16.00;13.37;;;25.60;41.20;;;;;;20440;6860;296545;-71
2023/10/03 07:57:57;;;;;;;15.47;12.43;;;25.70;40.90;;;;;;20638;6860;119400;-77
2023/10/03 08:00:26;;;;;;;18.73;14.20;;;25.70;41.40;;;;;;20425;6860;284421;-73
2023/10/03 08:02:49;;;;;;;19.95;14.38;;;25.80;41.10;;;;;;20424;6860;342434;-74
2023/10/03 08:05:14;;;;;;;16.80;12.00;;;26.10;41.30;;;;;;20671;6860;117963;-73
2023/10/03 08:07:42;;;;;;;14.27;11.67;;;26.00;41.20;;;;;;20656;6860;118126;-73
2023/10/03 08:10:06;;;;;;;15.00;12.77;;;25.90;41.50;;;;;;20392;6858;337572;-75
2023/10/03 08:12:37;;;;;;;14.57;11.60;;;26.10;40.40;;;;;;20594;6859;117638;-76
2023/10/03 08:14:57;;;;;;;15.27;10.50;;;26.30;40.70;;;;;;20614;6859;117753;-76
2023/10/03 08:17:31;;;;;;;12.13;10.03;;;26.30;40.90;;;;;;20642;6859;117811;-75
2023/10/03 08:19:55;;;;;;;13.40;11.23;;;26.30;40.90;;;;;;20452;6859;280281;-76
2023/10/03 08:22:20;;;;;;;13.13;11.65;;;26.60;39.70;;;;;;20453;6859;309527;-76
2023/10/03 08:24:45;;;;;;;13.05;11.68;;;27.00;39.20;;;;;;20439;6859;342503;-75
2023/10/03 08:27:18;;;;;;;13.40;11.05;;;27.50;38.70;;;;;;20454;6859;310367;-75
2023/10/03 08:29:36;;;;;;;15.27;10.00;;;27.80;37.60;;;;;;20644;6860;117678;-75
2023/10/03 08:32:04;;;;;;;12.63;10.50;;;27.90;38.00;;;;;;20457;6860;279208;-75
2023/10/03 08:34:27;;;;;;;10.87;9.77;;;28.10;37.50;;;;;;20436;6860;279629;-76
2023/10/03 08:36:59;;;;;;;10.23;8.63;;;28.30;36.70;;;;;;20639;6860;120475;-76
2023/10/03 08:39:25;;;;;;;10.40;9.37;;;28.40;37.10;;;;;;20457;6860;308291;-76
2023/10/03 08:42:12;;;;;;;10.40;8.52;;;28.60;36.10;;;;;;20458;6860;337868;-75
2023/10/03 08:44:31;;;;;;;8.30;7.50;;;28.90;35.20;;;;;;20439;6860;118088;-75
2023/10/03 08:46:57;;;;;;;10.00;8.82;;;29.00;35.80;;;;;;20422;6860;343140;-75
2023/10/03 08:49:24;;;;;;;10.47;8.63;;;29.50;34.40;;;;;;20440;6860;280325;-75
2023/10/03 08:51:51;;;;;;;8.00;7.20;;;29.40;34.40;;;;;;20622;6860;118565;-75
2023/10/03 08:54:16;;;;;;;9.93;7.67;;;29.30;35.20;;;;;;20552;6860;119407;-74
2023/10/03 08:56:42;;;;;;;10.30;7.93;;;29.20;35.10;;;;;;20404;6860;311098;-76
2023/10/03 08:59:09;;;;;;;8.10;6.97;;;29.40;34.60;;;;;;20468;6860;117973;-75
2023/10/03 09:01:33;;;;;;;7.27;6.57;;;29.40;34.50;;;;;;20609;6860;117407;-73
2023/10/03 09:04:05;;;;;;;9.23;7.37;;;29.30;34.80;;;;;;20422;6860;309920;-74
2023/10/03 09:06:26;;;;;;;9.00;7.20;;;29.50;33.80;;;;;;20383;6860;313233;-75
2023/10/03 09:09:07;;;;;;;8.00;7.25;;;30.10;34.00;;;;;;20420;6860;279570;-75
2023/10/03 09:11:18;;;;;;;8.18;7.47;;;30.00;33.20;;;;;;20378;6860;310435;-75
2023/10/03 09:13:45;;;;;;;7.82;7.03;;;30.40;32.90;;;;;;20438;6860;279504;-74
2023/10/03 09:16:09;;;;;;;7.53;6.83;;;30.50;32.60;;;;;;20419;6860;312585;-75
2023/10/03 09:18:41;;;;;;;7.37;6.70;;;30.70;32.60;;;;;;20440;6860;308880;-72
2023/10/03 09:21:07;;;;;;;6.68;6.15;;;30.90;31.90;;;;;;20448;6858;312651;-73
2023/10/03 09:23:39;;;;;;;7.87;6.40;;;31.10;32.20;;;;;;20584;6859;117379;-72
2023/10/03 09:26:06;;;;;;;6.65;6.00;;;31.10;32.50;;;;;;20451;6859;338685;-71
2023/10/03 09:28:35;;;;;;;6.30;5.70;;;31.10;32.00;;;;;;20671;6859;123216;-72
2023/10/03 09:30:55;;;;;;;6.35;5.75;;;31.10;32.30;;;;;;20434;6859;308650;-72
2023/10/03 09:33:21;;;;;;;5.77;5.27;;;31.20;31.40;;;;;;20679;6859;117972;-73
2023/10/03 09:35:55;;;;;;;6.30;5.75;;;31.20;31.80;;;;;;20449;6859;309392;-72
2023/10/03 09:38:25;;;;;;;7.03;5.30;;;31.30;31.40;;;;;;20657;6859;118344;-72
2023/10/03 09:40:48;;;;;;;5.93;5.33;;;31.30;31.40;;;;;;20610;6860;120052;-72
2023/10/03 09:43:16;;;;;;;8.90;5.40;;;31.10;31.40;;;;;;20459;6860;338692;-73
2023/10/03 09:45:38;;;;;;;5.73;5.20;;;31.30;31.10;;;;;;20647;6860;118352;-75
2023/10/03 09:48:06;;;;;;;7.75;5.75;;;31.30;31.10;;;;;;20461;6860;283202;-75
2023/10/03 09:50:30;;;;;;;6.25;5.45;;;31.40;30.70;;;;;;20454;6860;296987;-75
2023/10/03 09:53:01;;;;;;;5.97;5.47;;;31.80;30.30;;;;;;20408;6860;283572;-76
2023/10/03 09:55:27;;;;;;;6.30;5.70;;;31.80;30.30;;;;;;20421;6860;309154;-76
2023/10/03 09:57:54;;;;;;;5.53;5.03;;;31.90;30.30;;;;;;20448;6860;309538;-77
2023/10/03 10:00:38;;;;;;;5.60;5.10;;;32.00;30.10;;;;;;20655;6860;117447;-79
2023/10/03 10:02:49;;;;;;;6.83;6.20;;;31.90;30.50;;;;;;20599;6860;117604;-75
2023/10/03 10:05:19;;;;;;;5.17;4.67;;;31.70;31.00;;;;;;20644;6860;117493;-74
2023/10/03 10:08:06;;;;;;;6.87;5.23;;;31.40;31.40;;;;;;20644;6860;117755;-79
2023/10/03 10:10:27;;;;;;;6.55;5.70;;;31.30;31.60;;;;;;20210;6860;343229;-75
2023/10/03 10:13:14;;;;;;;6.18;5.37;;;31.40;31.00;;;;;;20429;6860;279839;-75
2023/10/03 10:16:07;;;;;;;5.20;4.70;;;31.80;31.20;;;;;;20656;6860;121303;-76
2023/10/03 10:18:44;;;;;;;5.30;4.80;;;31.80;31.20;;;;;;20647;6860;121005;-75
2023/10/03 10:21:19;;;;;;;5.37;4.87;;;31.70;31.60;;;;;;20410;6860;316528;-75
2023/10/03 10:24:15;;;;;;;5.30;4.90;;;31.90;31.80;;;;;;20454;6860;309075;-75
2023/10/03 10:26:38;;;;;;;5.30;4.87;;;32.70;30.30;;;;;;20441;6860;308702;-73
2023/10/03 10:29:03;;;;;;;5.27;4.83;;;32.60;30.10;;;;;;20624;6860;117447;-74
2023/10/03 10:31:38;;;;;;;5.30;4.80;;;32.60;30.40;;;;;;20459;6860;278856;-75
2023/10/03 10:34:21;;;;;;;5.72;5.22;;;32.60;30.00;;;;;;20436;6859;308696;-74
2023/10/03 10:37:15;;;;;;;5.63;5.10;;;33.00;29.80;;;;;;20412;6859;307709;-73
2023/10/03 10:39:56;;;;;;;5.33;4.10;;;32.90;29.80;;;;;;20664;6859;117377;-73
2023/10/03 10:42:25;;;;;;;6.25;5.00;;;32.80;30.00;;;;;;20458;6859;337795;-74
2023/10/03 10:45:09;;;;;;;5.50;5.00;;;33.00;30.10;;;;;;20440;6859;283569;-73
2023/10/03 10:47:30;;;;;;;5.60;5.10;;;33.00;30.10;;;;;;20646;6859;117670;-73
2023/10/03 10:49:56;;;;;;;5.30;4.80;;;33.00;30.10;;;;;;20426;6859;285969;-73
2023/10/03 10:52:21;;;;;;;5.20;4.70;;;33.00;29.80;;;;;;20454;6860;308256;-75
2023/10/03 10:54:46;;;;;;;5.60;5.00;;;33.10;29.90;;;;;;20433;6860;313950;-75
2023/10/03 10:57:17;;;;;;;5.03;4.53;;;33.00;29.90;;;;;;20671;6860;117607;-75
2023/10/03 10:59:43;;;;;;;4.93;4.53;;;33.00;29.90;;;;;;20661;6860;117796;-76
2023/10/03 11:02:17;;;;;;;4.57;4.10;;;32.60;30.70;;;;;;20651;6860;120836;-75
2023/10/03 11:04:43;;;;;;;6.47;4.67;;;32.50;30.70;;;;;;20644;6860;148065;-75
2023/10/03 11:07:08;;;;;;;5.10;4.60;;;32.40;31.00;;;;;;20449;6860;279517;-77
2023/10/03 11:09:34;;;;;;;6.17;5.57;;;32.40;31.20;;;;;;20444;6860;308715;-74
2023/10/03 11:12:00;;;;;;;5.67;5.13;;;32.60;31.00;;;;;;20472;6860;280138;-76
2023/10/03 11:14:31;;;;;;;6.13;5.50;;;32.80;31.00;;;;;;20461;6860;309524;-75
2023/10/03 11:16:55;;;;;;;5.80;4.90;;;32.90;30.70;;;;;;20434;6860;337346;-73
2023/10/03 11:19:21;;;;;;;6.17;5.10;;;32.90;30.80;;;;;;20455;6860;307242;-73
2023/10/03 11:21:46;;;;;;;6.10;5.10;;;32.70;30.60;;;;;;20453;6860;309453;-74
2023/10/03 11:24:15;;;;;;;5.68;4.93;;;32.60;31.10;;;;;;20664;6860;117471;-75
2023/10/03 11:26:47;;;;;;;9.63;5.03;;;32.20;31.30;;;;;;20608;6860;117509;-73
2023/10/03 11:29:14;;;;;;;6.23;5.00;;;31.70;31.90;;;;;;20643;6860;117666;-74
2023/10/03 11:31:39;;;;;;;6.00;4.60;;;31.30;32.40;;;;;;20658;6860;117764;-72
2023/10/03 11:34:04;;;;;;;6.03;5.20;;;31.00;32.90;;;;;;20447;6860;310390;-73
2023/10/03 11:36:29;;;;;;;5.90;5.33;;;31.00;33.30;;;;;;20665;6860;117166;-73
2023/10/03 11:38:56;;;;;;;5.80;4.97;;;31.00;34.00;;;;;;20612;6860;123213;-73
2023/10/03 11:41:38;;;;;;;6.22;5.62;;;30.80;33.60;;;;;;20457;6860;278656;-73
2023/10/03 11:44:01;;;;;;;6.27;5.67;;;30.80;33.60;;;;;;20455;6858;284497;-74
2023/10/03 11:46:27;;;;;;;6.17;5.40;;;31.00;33.60;;;;;;20453;6859;280402;-73
2023/10/03 11:48:56;;;;;;;6.10;5.50;;;31.20;33.30;;;;;;20398;6859;308722;-72
2023/10/03 11:51:21;;;;;;;5.87;5.37;;;31.30;33.40;;;;;;20662;6859;118005;-73
2023/10/03 11:53:48;;;;;;;6.23;5.57;;;31.00;33.90;;;;;;20456;6859;309054;-71
2023/10/03 11:56:13;;;;;;;5.67;5.20;;;31.00;33.60;;;;;;20608;6859;118050;-72
2023/10/03 11:58:39;;;;;;;5.57;5.07;;;30.30;34.20;;;;;;20664;6859;117941;-72
2023/10/03 12:01:05;;;;;;;8.50;5.37;;;30.30;34.20;;;;;;20604;6859;119208;-72
2023/10/03 12:03:31;;;;;;;8.13;5.68;;;30.00;34.60;;;;;;20407;6860;282375;-71
2023/10/03 12:05:57;;;;;;;6.90;5.17;;;30.10;34.90;;;;;;20602;6860;117361;-72
2023/10/03 12:08:23;;;;;;;6.53;5.95;;;30.00;34.80;;;;;;20356;6860;309269;-72
2023/10/03 12:10:49;;;;;;;5.93;5.43;;;29.80;34.90;;;;;;20575;6860;123382;-72
2023/10/03 12:13:15;;;;;;;9.33;5.50;;;29.80;34.90;;;;;;20601;6860;117998;-72
2023/10/03 12:15:42;;;;;;;6.68;5.90;;;29.60;35.20;;;;;;20425;6860;300214;-72
2023/10/03 12:18:06;;;;;;;6.13;5.60;;;29.50;35.40;;;;;;20632;6860;120474;-72
2023/10/03 12:20:33;;;;;;;9.97;5.50;;;29.50;35.40;;;;;;20662;6860;117813;-72
2023/10/03 12:22:58;;;;;;;6.87;6.18;;;29.30;35.70;;;;;;20426;6860;309119;-73
2023/10/03 12:25:24;;;;;;;6.70;5.47;;;29.40;36.10;;;;;;20634;6859;115728;-73
2023/10/03 12:27:51;;;;;;;10.23;6.10;;;29.30;35.90;;;;;;20421;6860;313020;-73
2023/10/03 12:30:17;;;;;;;6.07;5.53;;;29.40;36.10;;;;;;20648;6860;118102;-71